createdAt,value
2023-03-31T00:00:13.586Z,27.00
2023-03-31T00:01:13.576Z,23.79
2023-03-31T00:02:13.804Z,29.50
2023-03-31T00:03:13.653Z,26.70
2023-03-31T00:04:14.166Z,27.50
2023-03-31T00:05:13.568Z,30.79
2023-03-31T00:06:13.553Z,27.20
2023-03-31T00:07:13.535Z,25.89
2023-03-31T00:08:13.504Z,28.70
2023-03-31T00:09:13.495Z,29.50
2023-03-31T00:10:18.317Z,29.79
2023-03-31T00:11:13.469Z,31.10
2023-03-31T00:12:13.465Z,27.00
2023-03-31T00:13:13.456Z,28.00
2023-03-31T00:14:13.439Z,26.79
2023-03-31T00:15:13.439Z,26.50
2023-03-31T00:16:13.474Z,31.50
2023-03-31T00:17:13.413Z,26.50
2023-03-31T00:18:13.409Z,29.29
2023-03-31T00:19:13.384Z,28.50
2023-03-31T00:20:13.377Z,29.20
2023-03-31T00:21:13.367Z,30.29
2023-03-31T00:22:13.378Z,30.29
2023-03-31T00:23:13.343Z,29.39
2023-03-31T00:24:13.331Z,37.79
2023-03-31T00:25:13.320Z,29.60
2023-03-31T00:26:13.309Z,32.29
2023-03-31T00:27:13.304Z,24.50
2023-03-31T00:28:13.288Z,29.50
2023-03-31T00:29:13.287Z,28.79
2023-03-31T00:30:13.267Z,27.10
2023-03-31T00:31:13.253Z,34.20
2023-03-31T00:32:13.281Z,28.29
2023-03-31T00:33:13.230Z,27.70
2023-03-31T00:34:13.224Z,29.00
2023-03-31T00:35:13.211Z,32.79
2023-03-31T00:36:13.234Z,22.39
2023-03-31T00:37:13.189Z,27.00
2023-03-31T00:38:13.201Z,25.20
2023-03-31T00:39:13.167Z,27.89
2023-03-31T04:36:10.654Z,15.50
2023-03-31T04:37:10.616Z,18.10
2023-03-31T04:38:10.627Z,14.89
2023-03-31T04:39:10.587Z,18.00
2023-03-31T04:40:10.572Z,16.39
2023-03-31T04:46:10.657Z,14.50
2023-03-31T04:47:10.498Z,17.70
2023-03-31T04:48:10.484Z,14.69
2023-03-31T04:51:10.455Z,16.29
2023-03-31T04:52:10.459Z,19.00
2023-03-31T04:53:10.441Z,13.50
2023-03-31T04:54:10.450Z,17.20
2023-03-31T04:55:10.415Z,15.10
2023-03-31T04:56:10.399Z,18.29
2023-03-31T04:57:10.420Z,15.00
2023-03-31T04:58:10.379Z,18.10
2023-03-31T04:59:10.368Z,16.79
2023-03-31T05:00:10.354Z,19.20
2023-03-31T05:01:10.363Z,13.00
2023-03-31T05:02:10.377Z,14.10
2023-03-31T05:03:10.396Z,14.60
2023-03-31T05:04:10.329Z,16.70
2023-03-31T05:05:10.307Z,13.39
2023-03-31T05:06:10.298Z,16.39
2023-03-31T05:07:10.288Z,16.29
2023-03-31T05:08:10.274Z,16.10
2023-03-31T05:09:10.267Z,14.89
2023-03-31T05:10:10.283Z,14.80
2023-03-31T05:11:10.251Z,17.89
2023-03-31T05:12:10.235Z,12.69
2023-03-31T05:13:10.222Z,13.10
2023-03-31T05:14:10.218Z,19.79
2023-03-31T05:15:10.203Z,15.80
2023-03-31T05:16:10.353Z,14.89
2023-03-31T05:17:10.182Z,16.50
2023-03-31T05:18:10.174Z,15.50
2023-03-31T05:19:10.169Z,14.89
2023-03-31T05:20:10.160Z,18.29
2023-03-31T05:21:10.143Z,17.29
2023-03-31T05:22:10.133Z,14.60
2023-03-31T05:23:10.126Z,17.20
2023-03-31T05:24:10.111Z,15.39
2023-03-31T05:25:10.117Z,17.00
2023-03-31T05:26:10.149Z,17.79
2023-03-31T05:27:10.076Z,17.39
2023-03-31T05:28:10.070Z,17.89
2023-03-31T05:29:10.057Z,17.60
2023-03-31T05:30:10.072Z,16.10
2023-03-31T05:31:10.035Z,12.39
2023-03-31T05:32:10.076Z,21.39
2023-03-31T05:33:10.024Z,17.70
2023-03-31T05:34:10.012Z,16.60
2023-03-31T05:35:10.006Z,13.80
2023-03-31T05:36:10.422Z,14.30
2023-03-31T05:37:09.971Z,17.39
2023-03-31T05:38:09.956Z,15.30
2023-03-31T05:39:09.958Z,18.10
2023-03-31T05:40:09.951Z,14.30
2023-03-31T05:41:09.927Z,15.69
2023-03-31T05:42:09.948Z,17.29
2023-03-31T05:43:09.903Z,17.60
2023-03-31T05:44:09.895Z,18.29
2023-03-31T05:45:09.880Z,13.10
2023-03-31T05:46:10.153Z,20.89
2023-03-31T05:47:09.864Z,19.39
2023-03-31T05:48:09.947Z,16.89
2023-03-31T05:49:09.846Z,16.39
2023-03-31T05:50:10.293Z,17.70
2023-03-31T05:51:09.818Z,17.60
2023-03-31T05:52:09.809Z,15.10
2023-03-31T05:53:09.798Z,15.10
2023-03-31T05:54:09.784Z,17.20
2023-03-31T05:55:09.779Z,16.20
2023-03-31T05:56:09.998Z,21.60
2023-03-31T05:57:09.782Z,18.10
2023-03-31T05:58:09.768Z,18.29
2023-03-31T05:59:09.738Z,17.60
2023-03-31T06:00:09.748Z,18.60
2023-03-31T06:01:10.079Z,14.10
2023-03-31T06:02:09.756Z,17.10
2023-03-31T06:03:09.805Z,15.89
2023-03-31T06:04:09.750Z,17.89
2023-03-31T06:05:09.666Z,15.60
2023-03-31T06:06:09.673Z,21.60
2023-03-31T06:07:09.647Z,18.29
2023-03-31T06:08:09.637Z,19.10
2023-03-31T06:09:09.627Z,15.19
2023-03-31T06:10:09.616Z,17.39
2023-03-31T06:11:09.671Z,19.50
2023-03-31T06:12:09.601Z,20.70
2023-03-31T06:13:09.590Z,17.50
2023-03-31T06:14:09.601Z,22.89
2023-03-31T06:15:09.594Z,16.60
2023-03-31T06:16:09.571Z,18.50
2023-03-31T06:17:09.538Z,17.39
2023-03-31T06:18:09.558Z,17.50
2023-03-31T06:19:09.521Z,14.60
2023-03-31T06:20:20.369Z,20.29
2023-03-31T06:21:10.513Z,16.20
2023-03-31T06:22:09.486Z,17.00
2023-03-31T06:23:09.474Z,16.10
2023-03-31T06:24:09.463Z,16.89
2023-03-31T06:25:09.459Z,16.50
2023-03-31T06:26:09.451Z,17.70
2023-03-31T06:27:09.481Z,19.10
2023-03-31T06:28:09.435Z,17.00
2023-03-31T06:29:09.416Z,16.50
2023-03-31T06:30:09.462Z,17.10
2023-03-31T06:31:09.566Z,17.10
2023-03-31T06:32:09.407Z,20.50
2023-03-31T06:33:09.416Z,18.29
2023-03-31T06:34:09.361Z,19.39
2023-03-31T06:35:09.349Z,14.69
2023-03-31T06:36:09.407Z,16.29
2023-03-31T06:37:09.325Z,17.89
2023-03-31T06:38:09.314Z,17.39
2023-03-31T06:39:09.309Z,19.29
2023-03-31T06:40:09.292Z,16.29
2023-03-31T06:41:09.528Z,14.30
2023-03-31T06:42:09.269Z,15.39
2023-03-31T06:43:09.266Z,19.50
2023-03-31T06:44:09.246Z,17.70
2023-03-31T06:45:09.235Z,13.89
2023-03-31T06:46:09.502Z,16.60
2023-03-31T06:47:09.214Z,17.50
2023-03-31T06:48:09.206Z,18.89
2023-03-31T06:49:09.195Z,16.39
2023-03-31T06:50:09.189Z,16.29
2023-03-31T06:51:09.187Z,15.80
2023-03-31T06:52:09.170Z,18.79
2023-03-31T06:53:09.154Z,21.39
2023-03-31T06:54:09.144Z,17.29
2023-03-31T06:55:09.134Z,18.60
2023-03-31T06:56:09.370Z,17.00
2023-03-31T06:57:09.180Z,19.70
2023-03-31T06:58:09.096Z,16.70
2023-03-31T06:59:09.087Z,17.39
2023-03-31T07:00:09.074Z,18.60
2023-03-31T07:01:09.366Z,16.89
2023-03-31T07:02:09.132Z,17.10
2023-03-31T07:03:09.202Z,19.89
2023-03-31T07:04:09.045Z,17.10
2023-03-31T07:05:09.076Z,21.29
2023-03-31T07:06:09.024Z,17.89
2023-03-31T07:07:09.000Z,23.10
2023-03-31T07:08:08.998Z,17.00
2023-03-31T07:09:08.980Z,17.20
2023-03-31T07:10:08.967Z,19.39
2023-03-31T07:11:09.294Z,17.70
2023-03-31T07:12:08.948Z,16.29
2023-03-31T07:13:08.930Z,21.89
2023-03-31T07:14:08.920Z,22.00
2023-03-31T07:15:08.949Z,24.20
2023-03-31T07:16:09.160Z,18.00
2023-03-31T07:17:08.897Z,17.70
2023-03-31T07:18:08.975Z,16.89
2023-03-31T07:19:08.877Z,24.20
2023-03-31T07:20:08.872Z,20.39
2023-03-31T07:21:10.216Z,21.00
2023-03-31T07:22:08.838Z,22.70
2023-03-31T07:23:08.827Z,17.29
2023-03-31T07:24:08.821Z,18.00
2023-03-31T07:25:08.805Z,21.60
2023-03-31T07:26:08.872Z,17.89
2023-03-31T07:27:08.791Z,20.89
2023-03-31T07:28:08.773Z,19.79
2023-03-31T07:29:08.779Z,19.79
2023-03-31T07:30:08.782Z,19.29
2023-03-31T07:31:08.740Z,19.10
2023-03-31T07:32:08.794Z,19.29
2023-03-31T07:33:08.795Z,19.89
2023-03-31T07:34:08.738Z,19.39
2023-03-31T07:35:08.702Z,18.39
2023-03-31T07:36:12.555Z,19.20
2023-03-31T07:37:08.678Z,17.29
2023-03-31T07:38:08.668Z,17.70
2023-03-31T07:39:08.666Z,16.29
2023-03-31T07:40:08.645Z,19.70
2023-03-31T07:41:09.883Z,17.39
2023-03-31T07:42:08.628Z,22.00
2023-03-31T07:43:08.617Z,21.29
2023-03-31T07:44:08.600Z,19.29
2023-03-31T07:45:08.589Z,17.89
2023-03-31T07:46:08.889Z,17.29
2023-03-31T07:47:08.573Z,20.00
2023-03-31T07:48:08.595Z,17.89
2023-03-31T07:49:08.549Z,23.00
2023-03-31T07:50:08.559Z,17.39
2023-03-31T07:51:08.568Z,17.50
2023-03-31T07:52:08.517Z,19.70
2023-03-31T07:53:08.505Z,19.89
2023-03-31T07:54:08.491Z,19.70
2023-03-31T07:55:08.483Z,17.60
2023-03-31T07:56:08.470Z,21.70
2023-03-31T07:57:08.512Z,19.39
2023-03-31T07:58:08.470Z,18.79
2023-03-31T07:59:08.438Z,15.30
2023-03-31T08:00:08.432Z,19.39
2023-03-31T08:01:08.634Z,18.89
2023-03-31T08:02:08.446Z,18.10
2023-03-31T08:03:08.479Z,17.00
2023-03-31T08:04:10.030Z,18.50
2023-03-31T08:05:08.377Z,21.00
2023-03-31T08:06:08.594Z,15.60
2023-03-31T08:07:08.357Z,20.00
2023-03-31T08:08:08.347Z,21.20
2023-03-31T08:09:08.332Z,17.39
2023-03-31T08:10:08.322Z,14.60
2023-03-31T08:11:08.550Z,19.00
2023-03-31T08:12:08.310Z,25.10
2023-03-31T08:13:08.301Z,17.50
2023-03-31T08:14:08.281Z,19.89
2023-03-31T08:15:08.281Z,18.10
2023-03-31T08:16:08.599Z,18.29
2023-03-31T08:17:08.549Z,20.79
2023-03-31T08:18:08.277Z,18.39
2023-03-31T08:19:08.225Z,17.60
2023-03-31T08:20:08.465Z,17.39
2023-03-31T08:21:08.443Z,16.60
2023-03-31T08:22:08.229Z,20.29
2023-03-31T08:23:08.186Z,18.70
2023-03-31T08:24:08.177Z,16.20
2023-03-31T08:25:08.186Z,19.00
2023-03-31T08:26:08.559Z,17.50
2023-03-31T08:27:11.900Z,19.10
2023-03-31T08:28:08.145Z,15.89
2023-03-31T08:29:08.121Z,18.29
2023-03-31T08:30:08.111Z,18.20
2023-03-31T08:31:08.259Z,22.10
2023-03-31T08:32:08.179Z,18.60
2023-03-31T08:33:08.109Z,20.79
2023-03-31T08:34:08.070Z,20.10
2023-03-31T08:35:08.061Z,20.20
2023-03-31T08:36:08.311Z,20.50
2023-03-31T08:37:08.040Z,20.20
2023-03-31T08:38:08.068Z,17.39
2023-03-31T08:39:08.013Z,16.20
2023-03-31T08:40:08.003Z,16.39
2023-03-31T08:41:08.008Z,19.10
2023-03-31T08:42:10.990Z,22.39
2023-03-31T08:43:07.973Z,22.10
2023-03-31T08:44:07.965Z,16.79
2023-03-31T08:45:07.962Z,17.70
2023-03-31T08:46:08.247Z,22.39
2023-03-31T08:47:07.935Z,19.20
2023-03-31T08:48:08.015Z,28.89
2023-03-31T08:49:07.923Z,20.29
2023-03-31T08:50:07.940Z,19.10
2023-03-31T08:51:08.225Z,16.29
2023-03-31T08:52:07.878Z,21.79
2023-03-31T08:53:07.885Z,20.39
2023-03-31T08:54:07.892Z,18.39
2023-03-31T08:55:07.858Z,18.29
2023-03-31T08:56:08.168Z,15.10
2023-03-31T08:57:07.907Z,22.79
2023-03-31T08:58:07.825Z,23.00
2023-03-31T08:59:07.812Z,21.39
2023-03-31T09:00:07.801Z,23.79
2023-03-31T09:01:08.149Z,21.60
2023-03-31T09:02:07.875Z,22.50
2023-03-31T09:03:08.001Z,19.00
2023-03-31T09:04:10.076Z,22.39
2023-03-31T09:05:07.748Z,19.50
2023-03-31T09:06:07.782Z,24.70
2023-03-31T09:07:07.725Z,20.60
2023-03-31T09:08:07.717Z,18.20
2023-03-31T09:09:07.707Z,23.20
2023-03-31T09:10:07.774Z,22.60
2023-03-31T09:11:07.685Z,17.00
2023-03-31T09:12:07.680Z,19.00
2023-03-31T09:13:07.730Z,18.89
2023-03-31T09:14:07.765Z,24.60
2023-03-31T09:15:07.780Z,18.60
2023-03-31T09:16:07.865Z,19.50
2023-03-31T09:17:07.721Z,18.10
2023-03-31T09:18:07.674Z,20.20
2023-03-31T09:19:07.603Z,22.70
2023-03-31T09:20:07.594Z,16.79
2023-03-31T09:21:08.147Z,18.10
2023-03-31T09:22:07.573Z,18.29
2023-03-31T09:23:07.556Z,18.20
2023-03-31T09:24:07.576Z,15.60
2023-03-31T09:25:07.536Z,17.39
2023-03-31T09:26:07.679Z,20.29
2023-03-31T09:27:07.528Z,18.89
2023-03-31T09:28:07.504Z,20.79
2023-03-31T09:29:07.532Z,18.89
2023-03-31T09:30:07.484Z,17.10
2023-03-31T09:31:07.522Z,23.89
2023-03-31T09:32:07.468Z,18.70
2023-03-31T09:33:07.507Z,18.50
2023-03-31T09:34:07.441Z,18.39
2023-03-31T09:35:07.439Z,19.70
2023-03-31T09:36:07.699Z,19.39
2023-03-31T09:37:07.418Z,16.50
2023-03-31T09:38:07.401Z,19.29
2023-03-31T09:39:07.394Z,18.50
2023-03-31T09:40:07.401Z,19.10
2023-03-31T09:41:07.370Z,20.79
2023-03-31T09:42:07.414Z,28.20
2023-03-31T09:43:07.352Z,18.50
2023-03-31T09:44:07.341Z,21.20
2023-03-31T09:45:07.330Z,22.89
2023-03-31T09:46:10.014Z,20.20
2023-03-31T09:47:09.033Z,26.89
2023-03-31T09:48:07.391Z,22.50
2023-03-31T09:49:07.287Z,23.39
2023-03-31T09:50:07.285Z,24.50
2023-03-31T09:51:07.271Z,20.29
2023-03-31T09:52:07.254Z,26.20
2023-03-31T09:53:07.250Z,20.00
2023-03-31T09:54:07.252Z,26.89
2023-03-31T09:55:07.226Z,24.00
2023-03-31T09:56:07.383Z,23.20
2023-03-31T09:57:07.271Z,26.89
2023-03-31T09:58:07.227Z,20.60
2023-03-31T09:59:07.182Z,21.70
2023-03-31T10:00:07.168Z,24.10
2023-03-31T10:01:07.388Z,18.60
2023-03-31T10:02:07.207Z,16.39
2023-03-31T10:03:07.242Z,22.39
2023-03-31T10:04:07.182Z,19.29
2023-03-31T10:05:07.116Z,17.50
2023-03-31T10:06:07.104Z,15.19
2023-03-31T10:07:07.095Z,18.00
2023-03-31T10:08:07.100Z,19.60
2023-03-31T10:09:07.079Z,20.00
2023-03-31T10:10:07.071Z,16.00
2023-03-31T10:11:07.253Z,14.50
2023-03-31T10:12:07.045Z,20.20
2023-03-31T10:13:07.038Z,15.39
2023-03-31T10:14:07.075Z,16.29
2023-03-31T10:15:07.018Z,18.20
2023-03-31T10:16:07.076Z,15.50
2023-03-31T10:17:07.057Z,25.20
2023-03-31T10:18:07.013Z,16.39
2023-03-31T10:19:06.972Z,18.39
2023-03-31T10:20:06.964Z,20.10
2023-03-31T10:21:07.233Z,16.89
2023-03-31T10:22:06.948Z,19.20
2023-03-31T10:23:06.925Z,23.10
2023-03-31T10:24:06.965Z,21.70
2023-03-31T10:25:06.907Z,19.39
2023-03-31T10:26:06.900Z,16.20
2023-03-31T10:27:06.892Z,19.89
2023-03-31T10:28:06.871Z,21.39
2023-03-31T10:29:06.863Z,20.10
2023-03-31T10:30:06.893Z,18.00
2023-03-31T10:31:07.120Z,18.20
2023-03-31T10:32:06.831Z,18.50
2023-03-31T10:33:19.176Z,19.70
2023-03-31T10:34:07.829Z,18.50
2023-03-31T10:35:06.813Z,18.79
2023-03-31T10:36:06.818Z,19.50
2023-03-31T10:37:06.777Z,19.29
2023-03-31T10:38:06.770Z,20.50
2023-03-31T10:39:06.750Z,18.79
2023-03-31T10:40:06.751Z,19.39
2023-03-31T10:41:06.927Z,20.00
2023-03-31T10:42:06.718Z,16.60
2023-03-31T10:43:06.712Z,17.60
2023-03-31T10:44:06.700Z,20.50
2023-03-31T10:45:06.692Z,18.20
2023-03-31T10:46:06.708Z,18.00
2023-03-31T10:47:06.708Z,20.79
2023-03-31T10:48:06.725Z,20.00
2023-03-31T10:49:06.646Z,24.00
2023-03-31T10:50:06.642Z,21.00
2023-03-31T10:51:06.780Z,20.29
2023-03-31T10:52:06.611Z,14.80
2023-03-31T10:53:06.604Z,17.60
2023-03-31T10:54:06.592Z,18.60
2023-03-31T10:55:06.583Z,18.29
2023-03-31T10:56:06.569Z,20.89
2023-03-31T10:57:06.584Z,17.39
2023-03-31T10:58:06.559Z,17.89
2023-03-31T10:59:06.774Z,19.70
2023-03-31T11:00:06.536Z,18.70
2023-03-31T11:01:06.788Z,19.39
2023-03-31T11:02:06.569Z,17.89
2023-03-31T11:03:06.583Z,19.20
2023-03-31T11:04:06.562Z,20.39
2023-03-31T11:05:06.490Z,18.89
2023-03-31T11:06:06.478Z,17.89
2023-03-31T11:07:06.453Z,18.20
2023-03-31T11:08:06.490Z,22.60
2023-03-31T11:09:06.486Z,17.10
2023-03-31T11:10:06.431Z,19.00
2023-03-31T11:11:06.762Z,17.70
2023-03-31T11:12:06.408Z,21.20
2023-03-31T11:13:06.394Z,18.20
2023-03-31T11:14:06.385Z,18.39
2023-03-31T11:15:06.374Z,24.70
2023-03-31T11:16:06.451Z,25.79
2023-03-31T11:17:06.388Z,21.20
2023-03-31T11:18:06.424Z,20.29
2023-03-31T11:19:06.345Z,21.70
2023-03-31T11:20:06.324Z,22.29
2023-03-31T11:21:06.569Z,22.29
2023-03-31T11:22:06.320Z,25.00
2023-03-31T11:23:06.294Z,23.60
2023-03-31T11:24:06.273Z,23.79
2023-03-31T11:25:06.357Z,23.20
2023-03-31T11:26:06.260Z,21.00
2023-03-31T11:27:06.247Z,24.70
2023-03-31T11:28:06.245Z,24.10
2023-03-31T11:29:06.230Z,24.60
2023-03-31T11:30:06.233Z,23.60
2023-03-31T11:31:06.340Z,22.60
2023-03-31T11:32:06.265Z,26.89
2023-03-31T11:33:06.224Z,27.50
2023-03-31T11:34:06.328Z,20.10
2023-03-31T11:35:06.161Z,25.60
2023-03-31T11:36:06.211Z,24.70
2023-03-31T11:37:06.138Z,20.39
2023-03-31T11:38:06.132Z,21.50
2023-03-31T11:39:06.122Z,27.89
2023-03-31T11:40:06.119Z,25.39
2023-03-31T11:41:06.242Z,20.29
2023-03-31T11:42:06.089Z,22.60
2023-03-31T11:43:06.082Z,27.89
2023-03-31T11:44:06.077Z,29.89
2023-03-31T11:45:06.074Z,22.50
2023-03-31T11:46:06.350Z,22.50
2023-03-31T11:47:06.044Z,25.50
2023-03-31T11:48:07.546Z,25.79
2023-03-31T11:49:06.013Z,27.00
2023-03-31T11:50:06.034Z,23.60
2023-03-31T11:51:05.998Z,23.79
2023-03-31T11:52:05.985Z,21.89
2023-03-31T11:53:05.973Z,22.20
2023-03-31T11:54:05.972Z,21.10
2023-03-31T11:55:05.961Z,20.29
2023-03-31T11:56:06.106Z,21.70
2023-03-31T11:57:05.969Z,23.20
2023-03-31T11:58:05.931Z,21.60
2023-03-31T11:59:05.930Z,23.10
2023-03-31T12:00:05.903Z,21.89
2023-03-31T12:01:05.889Z,22.70
2023-03-31T12:02:05.875Z,23.60
2023-03-31T12:03:06.000Z,25.79
2023-03-31T12:04:05.896Z,24.89
2023-03-31T12:05:05.861Z,24.50
2023-03-31T12:06:06.252Z,22.60
2023-03-31T12:07:05.825Z,24.89
2023-03-31T12:08:05.824Z,21.60
2023-03-31T12:09:05.811Z,23.60
2023-03-31T12:10:05.818Z,21.39
2023-03-31T12:11:05.787Z,24.70
2023-03-31T12:12:05.877Z,24.00
2023-03-31T12:13:05.782Z,24.50
2023-03-31T12:14:05.755Z,22.79
2023-03-31T12:15:05.756Z,23.10
2023-03-31T12:16:06.062Z,22.70
2023-03-31T12:17:05.723Z,18.20
2023-03-31T12:18:05.727Z,21.79
2023-03-31T12:19:05.699Z,20.70
2023-03-31T12:20:05.692Z,23.10
2023-03-31T12:21:05.685Z,25.70
2023-03-31T12:22:05.699Z,22.60
2023-03-31T12:23:05.659Z,24.00
2023-03-31T12:24:07.898Z,24.29
2023-03-31T12:25:05.642Z,21.70
2023-03-31T12:26:05.764Z,24.70
2023-03-31T12:27:05.621Z,23.70
2023-03-31T12:28:05.609Z,22.60
2023-03-31T12:29:05.600Z,20.89
2023-03-31T12:30:05.594Z,25.29
2023-03-31T12:31:05.599Z,22.39
2023-03-31T12:32:05.565Z,25.39
2023-03-31T12:33:05.599Z,20.60
2023-03-31T12:34:05.548Z,19.79
2023-03-31T12:35:05.545Z,23.60
2023-03-31T12:36:05.736Z,23.79
2023-03-31T12:37:05.519Z,26.50
2023-03-31T12:38:05.528Z,23.39
2023-03-31T12:39:05.492Z,27.79
2023-03-31T12:40:05.483Z,25.10
2023-03-31T12:41:05.474Z,27.20
2023-03-31T12:42:05.464Z,27.79
2023-03-31T12:43:05.453Z,23.60
2023-03-31T12:44:05.442Z,23.00
2023-03-31T12:45:05.434Z,22.00
2023-03-31T12:46:05.598Z,21.10
2023-03-31T12:47:05.464Z,24.29
2023-03-31T12:48:05.424Z,25.79
2023-03-31T12:49:05.393Z,21.20
2023-03-31T12:50:05.379Z,21.79
2023-03-31T12:51:05.592Z,21.89
2023-03-31T12:52:05.361Z,21.29
2023-03-31T12:53:05.346Z,21.20
2023-03-31T12:54:05.364Z,34.50
2023-03-31T12:55:05.342Z,20.89
2023-03-31T12:56:05.471Z,22.39
2023-03-31T12:57:05.367Z,23.20
2023-03-31T12:58:05.301Z,19.79
2023-03-31T12:59:05.286Z,20.20
2023-03-31T13:00:05.278Z,20.89
2023-03-31T13:01:05.658Z,19.39
2023-03-31T13:02:05.277Z,19.29
2023-03-31T13:03:05.266Z,19.89
2023-03-31T13:04:05.238Z,19.70
2023-03-31T13:05:05.224Z,17.29
2023-03-31T13:06:05.214Z,19.79
2023-03-31T13:07:11.741Z,22.79
2023-03-31T13:08:06.215Z,19.70
2023-03-31T13:09:05.183Z,22.00
2023-03-31T13:10:05.227Z,25.60
2023-03-31T13:11:05.462Z,18.10
2023-03-31T13:12:05.152Z,21.50
2023-03-31T13:13:05.145Z,20.29
2023-03-31T13:14:05.135Z,22.60
2023-03-31T13:15:05.136Z,22.10
2023-03-31T13:16:05.116Z,19.89
2023-03-31T13:17:05.185Z,21.00
2023-03-31T13:18:05.106Z,24.00
2023-03-31T13:19:05.097Z,22.00
2023-03-31T13:20:05.072Z,23.50
2023-03-31T13:21:05.323Z,23.39
2023-03-31T13:22:05.045Z,24.79
2023-03-31T13:23:05.045Z,24.89
2023-03-31T13:24:05.030Z,23.20
2023-03-31T13:25:05.013Z,22.10
2023-03-31T13:26:05.042Z,24.50
2023-03-31T13:27:04.991Z,25.79
2023-03-31T13:28:04.984Z,31.79
2023-03-31T13:29:05.003Z,22.70
2023-03-31T13:30:04.959Z,25.50
2023-03-31T13:31:04.951Z,21.60
2023-03-31T13:32:05.006Z,20.39
2023-03-31T13:33:05.044Z,22.39
2023-03-31T13:34:04.917Z,24.10
2023-03-31T13:35:04.947Z,21.70
2023-03-31T13:36:04.954Z,23.60
2023-03-31T13:37:04.892Z,25.20
2023-03-31T13:38:04.874Z,23.20
2023-03-31T13:39:04.860Z,23.20
2023-03-31T13:40:04.846Z,24.39
2023-03-31T13:41:04.840Z,23.60
2023-03-31T13:42:04.856Z,24.50
2023-03-31T13:43:04.818Z,26.39
2023-03-31T13:44:04.803Z,24.79
2023-03-31T13:45:04.809Z,25.50
2023-03-31T13:46:04.822Z,31.60
2023-03-31T13:47:04.779Z,27.60
2023-03-31T13:48:04.773Z,26.50
2023-03-31T13:49:04.752Z,25.00
2023-03-31T13:50:04.739Z,25.60
2023-03-31T13:51:04.726Z,26.00
2023-03-31T13:52:04.721Z,28.00
2023-03-31T13:53:04.705Z,24.79
2023-03-31T13:54:04.696Z,30.70
2023-03-31T13:55:04.681Z,26.00
2023-03-31T13:56:04.676Z,28.79
2023-03-31T13:57:04.701Z,24.70
2023-03-31T13:58:08.092Z,30.29
2023-03-31T13:59:05.665Z,27.89
2023-03-31T14:00:04.636Z,30.70
2023-03-31T14:01:05.803Z,30.10
2023-03-31T14:02:04.699Z,30.10
2023-03-31T14:03:04.707Z,27.10
2023-03-31T14:04:04.602Z,28.70
2023-03-31T14:05:04.579Z,28.29
2023-03-31T14:06:04.567Z,33.09
2023-03-31T14:07:04.559Z,34.29
2023-03-31T14:08:04.550Z,27.00
2023-03-31T14:09:04.535Z,30.89
2023-03-31T14:10:04.525Z,30.79
2023-03-31T14:11:04.512Z,34.90
2023-03-31T14:12:04.504Z,31.29
2023-03-31T14:13:04.497Z,29.79
2023-03-31T14:14:04.515Z,35.90
2023-03-31T14:15:04.483Z,35.79
2023-03-31T14:16:04.605Z,34.00
2023-03-31T14:17:04.457Z,38.00
2023-03-31T14:18:04.547Z,37.50
2023-03-31T14:19:04.434Z,40.20
2023-03-31T14:20:04.425Z,40.90
2023-03-31T14:21:04.422Z,44.79
2023-03-31T14:22:04.412Z,41.20
2023-03-31T14:23:04.395Z,44.29
2023-03-31T14:24:04.383Z,41.70
2023-03-31T14:25:04.376Z,42.79
2023-03-31T14:26:04.368Z,39.29
2023-03-31T14:27:04.358Z,39.09
2023-03-31T14:28:04.349Z,39.00
2023-03-31T14:29:04.333Z,38.00
2023-03-31T14:30:04.358Z,41.09
2023-03-31T14:31:04.370Z,50.40
2023-03-31T14:32:04.308Z,39.59
2023-03-31T14:33:04.379Z,45.59
2023-03-31T14:34:04.285Z,46.20
2023-03-31T14:35:04.358Z,43.90
2023-03-31T14:36:04.270Z,43.70
2023-03-31T14:37:04.295Z,49.29
2023-03-31T14:38:04.243Z,43.29
2023-03-31T14:39:04.238Z,45.50
2023-03-31T14:40:04.230Z,49.50
2023-03-31T14:41:04.216Z,52.00
2023-03-31T14:42:04.204Z,52.09
2023-03-31T14:43:04.196Z,53.00
2023-03-31T14:44:04.179Z,56.09
2023-03-31T14:45:04.180Z,58.50
2023-03-31T14:46:04.189Z,52.40
2023-03-31T14:47:04.255Z,62.79
2023-03-31T14:48:04.172Z,60.09
2023-03-31T14:49:04.135Z,61.00
2023-03-31T14:50:06.378Z,51.29
2023-03-31T14:51:04.116Z,53.70
2023-03-31T14:52:04.103Z,51.20
2023-03-31T14:53:04.111Z,48.90
2023-03-31T14:54:04.186Z,55.70
2023-03-31T14:55:04.088Z,51.90
2023-03-31T14:56:04.065Z,49.09
2023-03-31T14:57:04.078Z,39.90
2023-03-31T14:58:04.040Z,37.20
2023-03-31T14:59:04.029Z,40.29
2023-03-31T15:00:04.017Z,49.00
2023-03-31T15:01:04.083Z,36.79
2023-03-31T15:02:04.019Z,46.29
2023-03-31T15:03:04.021Z,50.70
2023-03-31T15:04:03.981Z,40.20
2023-03-31T15:05:03.990Z,35.50
2023-03-31T15:06:03.962Z,29.60
2023-03-31T15:07:03.960Z,30.70
2023-03-31T15:08:03.940Z,27.10
2023-03-31T15:09:03.929Z,26.39
2023-03-31T15:10:03.921Z,26.79
2023-03-31T15:11:12.917Z,28.29
2023-03-31T15:12:04.915Z,25.10
2023-03-31T15:13:03.885Z,29.10
2023-03-31T15:14:05.873Z,29.89
2023-03-31T15:15:03.887Z,34.00
2023-03-31T15:16:03.855Z,38.00
2023-03-31T15:17:03.999Z,37.00
2023-03-31T15:18:03.921Z,31.70
2023-03-31T15:19:03.825Z,34.59
2023-03-31T15:20:03.818Z,33.90
2023-03-31T15:21:03.809Z,36.29
2023-03-31T15:22:03.798Z,33.79
2023-03-31T15:23:03.783Z,36.40
2023-03-31T15:24:03.781Z,40.90
2023-03-31T15:25:03.764Z,44.59
2023-03-31T15:26:03.759Z,37.79
2023-03-31T15:27:03.739Z,35.50
2023-03-31T15:28:03.733Z,38.79
2023-03-31T15:29:03.725Z,33.79
2023-03-31T15:30:03.809Z,34.70
2023-03-31T15:31:10.124Z,32.09
2023-03-31T15:32:03.791Z,35.50
2023-03-31T15:33:17.984Z,32.50
2023-03-31T15:34:04.783Z,35.90
2023-03-31T15:36:04.692Z,36.59
2023-03-31T15:37:03.641Z,42.70
2023-03-31T15:38:03.619Z,41.20
2023-03-31T15:39:03.612Z,36.90
2023-03-31T15:40:03.610Z,34.70
2023-03-31T15:41:03.592Z,30.20
2023-03-31T15:42:03.583Z,29.20
2023-03-31T15:43:06.979Z,34.90
2023-03-31T15:44:04.579Z,34.90
2023-03-31T15:45:03.544Z,43.50
2023-03-31T15:46:03.559Z,37.70
2023-03-31T15:47:03.525Z,36.79
2023-03-31T15:48:03.533Z,41.40
2023-03-31T15:49:03.501Z,39.40
2023-03-31T15:50:03.544Z,34.70
2023-03-31T15:51:03.479Z,43.09
2023-03-31T15:52:03.474Z,39.09
2023-03-31T15:53:38.521Z,39.00
2023-03-31T15:54:35.309Z,26.79
2023-03-31T15:55:03.436Z,31.60
2023-03-31T15:56:03.425Z,25.20
2023-03-31T15:57:03.464Z,26.39
2023-03-31T15:58:03.411Z,25.70
2023-03-31T15:59:03.399Z,24.89
2023-03-31T16:00:03.383Z,23.89
2023-03-31T16:01:03.445Z,23.20
2023-03-31T16:02:03.459Z,23.29
2023-03-31T16:03:03.401Z,28.89
2023-03-31T16:04:03.349Z,23.00
2023-03-31T16:05:08.059Z,18.70
2023-03-31T16:06:04.447Z,20.50
2023-03-31T16:07:05.917Z,20.20
2023-03-31T16:08:03.305Z,19.89
2023-03-31T16:09:03.295Z,19.39
2023-03-31T16:10:03.286Z,16.20
2023-03-31T16:11:03.278Z,16.29
2023-03-31T16:12:03.263Z,16.50
2023-03-31T16:13:03.367Z,14.10
2023-03-31T16:14:03.237Z,17.79
2023-03-31T16:15:03.246Z,20.00
2023-03-31T16:17:00.696Z,18.79
2023-03-31T16:17:03.208Z,16.00
2023-03-31T16:18:03.324Z,16.60
2023-03-31T16:19:03.191Z,16.79
2023-03-31T16:20:03.213Z,18.79
2023-03-31T16:21:03.167Z,16.29
2023-03-31T16:22:03.183Z,13.80
2023-03-31T16:23:03.145Z,13.89
2023-03-31T16:24:03.138Z,16.20
2023-03-31T16:25:03.133Z,12.89
2023-03-31T16:26:03.144Z,13.80
2023-03-31T16:27:03.109Z,13.50
2023-03-31T16:28:03.093Z,14.00
2023-03-31T16:29:03.142Z,12.80
2023-03-31T16:30:03.073Z,13.10
2023-03-31T16:31:03.107Z,12.00
2023-03-31T16:32:03.100Z,12.69
2023-03-31T16:33:03.249Z,14.80
2023-03-31T16:34:03.189Z,11.19
2023-03-31T16:35:03.138Z,11.39
2023-03-31T16:36:03.023Z,10.80
2023-03-31T16:37:03.014Z,12.39
2023-03-31T16:38:03.025Z,11.39
2023-03-31T16:39:02.978Z,11.00
2023-03-31T16:40:03.012Z,11.60
2023-03-31T16:41:03.088Z,13.19
2023-03-31T16:42:02.952Z,13.39
2023-03-31T16:43:02.941Z,14.60
2023-03-31T16:44:02.932Z,13.30
2023-03-31T16:46:02.906Z,13.50
2023-03-31T16:47:03.059Z,13.30
2023-03-31T16:48:15.613Z,13.30
2023-03-31T16:49:03.895Z,14.69
2023-03-31T16:50:02.873Z,13.89
2023-03-31T16:51:02.878Z,15.19
2023-03-31T16:52:02.850Z,13.60
2023-03-31T16:53:02.839Z,15.30
2023-03-31T16:54:02.848Z,17.00
2023-03-31T16:55:02.828Z,17.10
2023-03-31T16:56:02.800Z,15.89
2023-03-31T16:57:02.909Z,16.39